sensor_id;sensor_type;location;lat;lon;timestamp;P1;durP1;ratioP1;P2;durP2;ratioP2
253;SDS011;590;48.772;8.846;2023-04-15T00:01:11;3.77;;;3.57;;
253;SDS011;590;48.772;8.846;2023-04-15T00:03:44;3.57;;;3.37;;
253;SDS011;590;48.772;8.846;2023-04-15T00:06:12;3.17;;;2.97;;
253;SDS011;590;48.772;8.846;2023-04-15T00:08:41;3.40;;;3.20;;
253;SDS011;590;48.772;8.846;2023-04-15T00:11:10;3.20;;;3.00;;
253;SDS011;590;48.772;8.846;2023-04-15T00:13:38;3.20;;;3.00;;
253;SDS011;590;48.772;8.846;2023-04-15T00:16:07;2.97;;;2.77;;
253;SDS011;590;48.772;8.846;2023-04-15T00:18:36;3.00;;;2.80;;
253;SDS011;590;48.772;8.846;2023-04-15T00:21:04;3.53;;;3.33;;
253;SDS011;590;48.772;8.846;2023-04-15T00:23:32;3.50;;;3.40;;
253;SDS011;590;48.772;8.846;2023-04-15T00:26:01;3.50;;;3.30;;
253;SDS011;590;48.772;8.846;2023-04-15T00:28:31;3.53;;;3.33;;
253;SDS011;590;48.772;8.846;2023-04-15T00:30:59;3.03;;;2.83;;
253;SDS011;590;48.772;8.846;2023-04-15T00:33:27;3.07;;;2.87;;
253;SDS011;590;48.772;8.846;2023-04-15T00:35:55;3.10;;;2.90;;
253;SDS011;590;48.772;8.846;2023-04-15T00:38:23;3.33;;;3.13;;
253;SDS011;590;48.772;8.846;2023-04-15T00:40:51;3.10;;;2.90;;
253;SDS011;590;48.772;8.846;2023-04-15T00:43:19;3.20;;;3.00;;
253;SDS011;590;48.772;8.846;2023-04-15T00:45:48;2.60;;;2.40;;
253;SDS011;590;48.772;8.846;2023-04-15T00:48:18;2.90;;;2.70;;
253;SDS011;590;48.772;8.846;2023-04-15T00:50:47;3.43;;;3.23;;
253;SDS011;590;48.772;8.846;2023-04-15T00:53:15;3.23;;;3.03;;
253;SDS011;590;48.772;8.846;2023-04-15T00:55:43;3.27;;;3.07;;
253;SDS011;590;48.772;8.846;2023-04-15T00:58:11;3.07;;;2.87;;
253;SDS011;590;48.772;8.846;2023-04-15T01:00:39;3.03;;;2.83;;
253;SDS011;590;48.772;8.846;2023-04-15T01:03:09;3.20;;;2.93;;
253;SDS011;590;48.772;8.846;2023-04-15T01:05:37;2.70;;;2.50;;
253;SDS011;590;48.772;8.846;2023-04-15T01:08:06;3.03;;;2.83;;
253;SDS011;590;48.772;8.846;2023-04-15T01:10:35;3.10;;;2.90;;
253;SDS011;590;48.772;8.846;2023-04-15T01:13:03;3.17;;;3.00;;
253;SDS011;590;48.772;8.846;2023-04-15T01:15:31;3.47;;;3.27;;
253;SDS011;590;48.772;8.846;2023-04-15T01:17:59;2.80;;;2.60;;
253;SDS011;590;48.772;8.846;2023-04-15T01:20:30;2.73;;;2.53;;
253;SDS011;590;48.772;8.846;2023-04-15T01:22:58;3.27;;;3.07;;
253;SDS011;590;48.772;8.846;2023-04-15T01:25:30;2.93;;;2.73;;
253;SDS011;590;48.772;8.846;2023-04-15T01:27:59;3.20;;;3.00;;
253;SDS011;590;48.772;8.846;2023-04-15T01:30:27;2.60;;;2.40;;
253;SDS011;590;48.772;8.846;2023-04-15T01:32:55;3.10;;;2.90;;
253;SDS011;590;48.772;8.846;2023-04-15T01:35:24;2.50;;;2.30;;
253;SDS011;590;48.772;8.846;2023-04-15T01:37:52;2.63;;;2.43;;
253;SDS011;590;48.772;8.846;2023-04-15T01:40:21;2.83;;;2.60;;
253;SDS011;590;48.772;8.846;2023-04-15T01:42:50;3.40;;;3.20;;
253;SDS011;590;48.772;8.846;2023-04-15T01:45:18;3.40;;;3.23;;
253;SDS011;590;48.772;8.846;2023-04-15T01:47:46;3.07;;;2.87;;
253;SDS011;590;48.772;8.846;2023-04-15T01:50:14;2.97;;;2.77;;
253;SDS011;590;48.772;8.846;2023-04-15T01:52:43;3.20;;;3.00;;
253;SDS011;590;48.772;8.846;2023-04-15T01:55:13;2.80;;;2.60;;
253;SDS011;590;48.772;8.846;2023-04-15T01:57:42;3.37;;;3.17;;
253;SDS011;590;48.772;8.846;2023-04-15T02:00:13;2.73;;;2.53;;
253;SDS011;590;48.772;8.846;2023-04-15T02:02:42;3.57;;;2.90;;
253;SDS011;590;48.772;8.846;2023-04-15T02:05:10;3.00;;;2.80;;
253;SDS011;590;48.772;8.846;2023-04-15T02:07:39;3.00;;;2.80;;
253;SDS011;590;48.772;8.846;2023-04-15T02:10:09;2.53;;;2.23;;
253;SDS011;590;48.772;8.846;2023-04-15T02:12:38;2.90;;;2.70;;
253;SDS011;590;48.772;8.846;2023-04-15T02:15:07;2.97;;;2.77;;
253;SDS011;590;48.772;8.846;2023-04-15T02:17:37;2.40;;;2.20;;
253;SDS011;590;48.772;8.846;2023-04-15T02:20:07;2.90;;;2.70;;
253;SDS011;590;48.772;8.846;2023-04-15T02:22:35;2.50;;;2.30;;
253;SDS011;590;48.772;8.846;2023-04-15T02:25:04;3.10;;;2.90;;
253;SDS011;590;48.772;8.846;2023-04-15T02:27:34;2.97;;;2.77;;
253;SDS011;590;48.772;8.846;2023-04-15T02:30:02;2.47;;;2.27;;
253;SDS011;590;48.772;8.846;2023-04-15T02:32:31;2.40;;;2.20;;
253;SDS011;590;48.772;8.846;2023-04-15T02:35:02;3.23;;;2.80;;
253;SDS011;590;48.772;8.846;2023-04-15T02:37:31;3.13;;;2.93;;
253;SDS011;590;48.772;8.846;2023-04-15T02:40:02;3.13;;;2.93;;
253;SDS011;590;48.772;8.846;2023-04-15T02:42:30;2.63;;;2.43;;
253;SDS011;590;48.772;8.846;2023-04-15T02:44:58;2.23;;;2.03;;
253;SDS011;590;48.772;8.846;2023-04-15T02:47:26;3.03;;;2.83;;
253;SDS011;590;48.772;8.846;2023-04-15T02:49:54;2.93;;;2.80;;
253;SDS011;590;48.772;8.846;2023-04-15T02:52:25;2.37;;;2.17;;
253;SDS011;590;48.772;8.846;2023-04-15T02:54:53;3.40;;;3.20;;
253;SDS011;590;48.772;8.846;2023-04-15T02:57:25;2.53;;;2.37;;
253;SDS011;590;48.772;8.846;2023-04-15T02:59:54;2.80;;;2.60;;
253;SDS011;590;48.772;8.846;2023-04-15T03:02:22;2.80;;;2.60;;
253;SDS011;590;48.772;8.846;2023-04-15T03:04:51;2.40;;;2.20;;
253;SDS011;590;48.772;8.846;2023-04-15T03:07:19;2.87;;;2.67;;
253;SDS011;590;48.772;8.846;2023-04-15T03:09:48;3.00;;;2.80;;
253;SDS011;590;48.772;8.846;2023-04-15T03:12:16;2.83;;;2.60;;
253;SDS011;590;48.772;8.846;2023-04-15T03:14:44;2.87;;;2.67;;
253;SDS011;590;48.772;8.846;2023-04-15T03:17:12;2.63;;;2.43;;
253;SDS011;590;48.772;8.846;2023-04-15T03:19:40;2.70;;;2.50;;
253;SDS011;590;48.772;8.846;2023-04-15T03:22:08;3.90;;;2.90;;
253;SDS011;590;48.772;8.846;2023-04-15T03:24:36;3.10;;;2.90;;
253;SDS011;590;48.772;8.846;2023-04-15T03:27:05;3.17;;;2.97;;
253;SDS011;590;48.772;8.846;2023-04-15T03:29:33;2.67;;;2.47;;
253;SDS011;590;48.772;8.846;2023-04-15T03:32:01;2.63;;;2.43;;
253;SDS011;590;48.772;8.846;2023-04-15T03:34:31;2.83;;;2.63;;
253;SDS011;590;48.772;8.846;2023-04-15T03:37:00;2.87;;;2.67;;
253;SDS011;590;48.772;8.846;2023-04-15T03:39:28;3.07;;;2.87;;
253;SDS011;590;48.772;8.846;2023-04-15T03:41:57;3.00;;;2.80;;
253;SDS011;590;48.772;8.846;2023-04-15T03:44:26;2.50;;;2.30;;
253;SDS011;590;48.772;8.846;2023-04-15T03:46:54;3.20;;;3.00;;
253;SDS011;590;48.772;8.846;2023-04-15T03:49:22;3.03;;;2.60;;
253;SDS011;590;48.772;8.846;2023-04-15T03:51:50;2.83;;;2.67;;
253;SDS011;590;48.772;8.846;2023-04-15T03:54:18;3.00;;;2.80;;
253;SDS011;590;48.772;8.846;2023-04-15T03:56:46;3.20;;;3.00;;
253;SDS011;590;48.772;8.846;2023-04-15T03:59:14;2.33;;;2.13;;
253;SDS011;590;48.772;8.846;2023-04-15T04:01:44;3.00;;;2.80;;
253;SDS011;590;48.772;8.846;2023-04-15T04:04:12;3.10;;;2.90;;
253;SDS011;590;48.772;8.846;2023-04-15T04:06:40;2.70;;;2.50;;
253;SDS011;590;48.772;8.846;2023-04-15T04:09:08;2.63;;;2.43;;
253;SDS011;590;48.772;8.846;2023-04-15T04:11:36;2.97;;;2.77;;
253;SDS011;590;48.772;8.846;2023-04-15T04:14:04;2.90;;;2.70;;
253;SDS011;590;48.772;8.846;2023-04-15T04:16:32;2.73;;;2.53;;
253;SDS011;590;48.772;8.846;2023-04-15T04:19:01;3.20;;;3.00;;
253;SDS011;590;48.772;8.846;2023-04-15T04:21:29;2.60;;;2.40;;
253;SDS011;590;48.772;8.846;2023-04-15T04:23:59;3.23;;;3.03;;
253;SDS011;590;48.772;8.846;2023-04-15T04:26:27;2.80;;;2.60;;
253;SDS011;590;48.772;8.846;2023-04-15T04:28:55;2.73;;;2.53;;
253;SDS011;590;48.772;8.846;2023-04-15T04:31:23;2.93;;;2.73;;
253;SDS011;590;48.772;8.846;2023-04-15T04:33:51;2.67;;;2.47;;
253;SDS011;590;48.772;8.846;2023-04-15T04:36:20;2.87;;;2.67;;
253;SDS011;590;48.772;8.846;2023-04-15T04:38:48;2.40;;;2.20;;
253;SDS011;590;48.772;8.846;2023-04-15T04:41:16;2.77;;;2.57;;
253;SDS011;590;48.772;8.846;2023-04-15T04:43:44;2.60;;;2.40;;
253;SDS011;590;48.772;8.846;2023-04-15T04:46:12;2.60;;;2.40;;
253;SDS011;590;48.772;8.846;2023-04-15T04:48:40;2.67;;;2.47;;
253;SDS011;590;48.772;8.846;2023-04-15T04:51:09;3.17;;;2.97;;
253;SDS011;590;48.772;8.846;2023-04-15T04:53:38;2.53;;;2.33;;
253;SDS011;590;48.772;8.846;2023-04-15T04:56:08;2.57;;;2.37;;
253;SDS011;590;48.772;8.846;2023-04-15T04:58:36;3.00;;;2.80;;
253;SDS011;590;48.772;8.846;2023-04-15T05:01:06;2.60;;;2.40;;
253;SDS011;590;48.772;8.846;2023-04-15T05:03:37;2.53;;;2.33;;
253;SDS011;590;48.772;8.846;2023-04-15T05:06:06;3.03;;;2.83;;
253;SDS011;590;48.772;8.846;2023-04-15T05:08:47;2.90;;;2.70;;
253;SDS011;590;48.772;8.846;2023-04-15T05:11:18;2.60;;;2.40;;
253;SDS011;590;48.772;8.846;2023-04-15T05:13:54;2.90;;;2.70;;
253;SDS011;590;48.772;8.846;2023-04-15T05:16:25;2.73;;;2.53;;
253;SDS011;590;48.772;8.846;2023-04-15T05:18:57;2.60;;;2.40;;
253;SDS011;590;48.772;8.846;2023-04-15T05:21:36;2.60;;;2.40;;
253;SDS011;590;48.772;8.846;2023-04-15T05:24:08;3.13;;;2.93;;
253;SDS011;590;48.772;8.846;2023-04-15T05:26:38;2.90;;;2.70;;
253;SDS011;590;48.772;8.846;2023-04-15T05:29:09;2.47;;;2.27;;
253;SDS011;590;48.772;8.846;2023-04-15T05:31:52;2.43;;;2.23;;
253;SDS011;590;48.772;8.846;2023-04-15T05:34:23;2.80;;;2.60;;
253;SDS011;590;48.772;8.846;2023-04-15T05:37:03;2.40;;;2.20;;
253;SDS011;590;48.772;8.846;2023-04-15T05:40:00;3.13;;;2.93;;
253;SDS011;590;48.772;8.846;2023-04-15T05:42:32;2.63;;;2.43;;
253;SDS011;590;48.772;8.846;2023-04-15T05:45:08;3.80;;;3.10;;
253;SDS011;590;48.772;8.846;2023-04-15T05:47:43;2.93;;;2.73;;
253;SDS011;590;48.772;8.846;2023-04-15T05:50:31;2.53;;;2.33;;
253;SDS011;590;48.772;8.846;2023-04-15T05:53:10;2.80;;;2.60;;
253;SDS011;590;48.772;8.846;2023-04-15T05:55:39;2.73;;;2.53;;
253;SDS011;590;48.772;8.846;2023-04-15T05:58:07;3.20;;;3.00;;
253;SDS011;590;48.772;8.846;2023-04-15T06:00:35;2.57;;;2.37;;
253;SDS011;590;48.772;8.846;2023-04-15T06:03:03;3.10;;;2.90;;
253;SDS011;590;48.772;8.846;2023-04-15T06:05:33;2.40;;;2.20;;
253;SDS011;590;48.772;8.846;2023-04-15T06:08:01;2.80;;;2.60;;
253;SDS011;590;48.772;8.846;2023-04-15T06:10:29;2.83;;;2.63;;
253;SDS011;590;48.772;8.846;2023-04-15T06:13:02;3.20;;;3.00;;
253;SDS011;590;48.772;8.846;2023-04-15T06:15:31;2.73;;;2.53;;
253;SDS011;590;48.772;8.846;2023-04-15T06:17:59;3.10;;;2.90;;
253;SDS011;590;48.772;8.846;2023-04-15T06:20:27;2.90;;;2.70;;
253;SDS011;590;48.772;8.846;2023-04-15T06:22:55;2.80;;;2.60;;
253;SDS011;590;48.772;8.846;2023-04-15T06:25:23;3.13;;;2.93;;
253;SDS011;590;48.772;8.846;2023-04-15T06:27:51;3.50;;;3.30;;
253;SDS011;590;48.772;8.846;2023-04-15T06:30:22;3.63;;;3.43;;
253;SDS011;590;48.772;8.846;2023-04-15T06:32:50;3.03;;;2.83;;
253;SDS011;590;48.772;8.846;2023-04-15T06:35:21;3.27;;;3.07;;
253;SDS011;590;48.772;8.846;2023-04-15T06:37:49;3.60;;;3.40;;
253;SDS011;590;48.772;8.846;2023-04-15T06:40:18;3.17;;;3.00;;
253;SDS011;590;48.772;8.846;2023-04-15T06:42:45;3.40;;;3.20;;
253;SDS011;590;48.772;8.846;2023-04-15T06:45:13;2.87;;;2.67;;
253;SDS011;590;48.772;8.846;2023-04-15T06:47:43;3.67;;;3.47;;
253;SDS011;590;48.772;8.846;2023-04-15T06:50:11;3.70;;;3.50;;
253;SDS011;590;48.772;8.846;2023-04-15T06:52:39;3.90;;;3.70;;
253;SDS011;590;48.772;8.846;2023-04-15T06:55:08;3.10;;;2.90;;
253;SDS011;590;48.772;8.846;2023-04-15T06:57:36;3.10;;;2.90;;
253;SDS011;590;48.772;8.846;2023-04-15T07:00:05;3.87;;;3.67;;
253;SDS011;590;48.772;8.846;2023-04-15T07:02:36;3.47;;;3.27;;
253;SDS011;590;48.772;8.846;2023-04-15T07:05:06;3.70;;;3.50;;
253;SDS011;590;48.772;8.846;2023-04-15T07:07:35;3.40;;;3.20;;
253;SDS011;590;48.772;8.846;2023-04-15T07:10:03;3.37;;;3.17;;
253;SDS011;590;48.772;8.846;2023-04-15T07:12:32;3.77;;;3.57;;
253;SDS011;590;48.772;8.846;2023-04-15T07:15:01;3.70;;;3.50;;
253;SDS011;590;48.772;8.846;2023-04-15T07:17:29;3.10;;;2.90;;
253;SDS011;590;48.772;8.846;2023-04-15T07:19:57;3.43;;;3.23;;
253;SDS011;590;48.772;8.846;2023-04-15T07:22:27;3.03;;;2.83;;
253;SDS011;590;48.772;8.846;2023-04-15T07:24:55;4.07;;;3.87;;
253;SDS011;590;48.772;8.846;2023-04-15T07:27:23;4.00;;;3.80;;
253;SDS011;590;48.772;8.846;2023-04-15T07:29:51;3.53;;;3.33;;
253;SDS011;590;48.772;8.846;2023-04-15T07:32:19;3.77;;;3.57;;
253;SDS011;590;48.772;8.846;2023-04-15T07:34:47;3.23;;;3.03;;
253;SDS011;590;48.772;8.846;2023-04-15T07:37:15;3.87;;;3.67;;
253;SDS011;590;48.772;8.846;2023-04-15T07:39:44;3.77;;;3.57;;
253;SDS011;590;48.772;8.846;2023-04-15T07:42:12;3.60;;;3.40;;
253;SDS011;590;48.772;8.846;2023-04-15T07:44:40;3.50;;;3.30;;
253;SDS011;590;48.772;8.846;2023-04-15T07:47:08;2.93;;;2.73;;
253;SDS011;590;48.772;8.846;2023-04-15T07:49:37;4.57;;;4.27;;
253;SDS011;590;48.772;8.846;2023-04-15T07:52:05;3.30;;;3.10;;
253;SDS011;590;48.772;8.846;2023-04-15T07:54:33;3.80;;;3.60;;
253;SDS011;590;48.772;8.846;2023-04-15T07:57:03;3.60;;;3.40;;
253;SDS011;590;48.772;8.846;2023-04-15T07:59:31;3.80;;;3.60;;
253;SDS011;590;48.772;8.846;2023-04-15T08:01:59;2.97;;;2.77;;
253;SDS011;590;48.772;8.846;2023-04-15T08:04:28;3.57;;;3.37;;
253;SDS011;590;48.772;8.846;2023-04-15T08:06:56;4.30;;;3.80;;
253;SDS011;590;48.772;8.846;2023-04-15T08:09:24;3.30;;;3.10;;
253;SDS011;590;48.772;8.846;2023-04-15T08:11:53;3.43;;;3.23;;
253;SDS011;590;48.772;8.846;2023-04-15T08:14:23;3.53;;;3.33;;
253;SDS011;590;48.772;8.846;2023-04-15T08:16:51;3.70;;;3.50;;
253;SDS011;590;48.772;8.846;2023-04-15T08:19:19;3.80;;;3.60;;
253;SDS011;590;48.772;8.846;2023-04-15T08:21:48;3.03;;;2.83;;
253;SDS011;590;48.772;8.846;2023-04-15T08:24:16;3.63;;;3.43;;
253;SDS011;590;48.772;8.846;2023-04-15T08:26:44;3.20;;;3.00;;
253;SDS011;590;48.772;8.846;2023-04-15T08:29:13;3.20;;;3.00;;
253;SDS011;590;48.772;8.846;2023-04-15T08:31:42;3.10;;;2.90;;
253;SDS011;590;48.772;8.846;2023-04-15T08:34:11;3.03;;;2.83;;
253;SDS011;590;48.772;8.846;2023-04-15T08:36:39;2.90;;;2.70;;
253;SDS011;590;48.772;8.846;2023-04-15T08:39:07;3.73;;;3.53;;
253;SDS011;590;48.772;8.846;2023-04-15T08:41:38;3.30;;;3.10;;
253;SDS011;590;48.772;8.846;2023-04-15T08:44:11;3.23;;;3.03;;
253;SDS011;590;48.772;8.846;2023-04-15T08:46:41;3.43;;;3.23;;
253;SDS011;590;48.772;8.846;2023-04-15T08:49:13;3.00;;;2.80;;
253;SDS011;590;48.772;8.846;2023-04-15T08:51:44;3.57;;;3.40;;
253;SDS011;590;48.772;8.846;2023-04-15T08:54:12;3.40;;;3.20;;
253;SDS011;590;48.772;8.846;2023-04-15T08:56:40;3.53;;;3.30;;
253;SDS011;590;48.772;8.846;2023-04-15T08:59:08;3.00;;;2.80;;
253;SDS011;590;48.772;8.846;2023-04-15T09:01:37;3.23;;;3.03;;
253;SDS011;590;48.772;8.846;2023-04-15T09:04:10;3.70;;;3.20;;
253;SDS011;590;48.772;8.846;2023-04-15T09:06:39;3.20;;;3.00;;
253;SDS011;590;48.772;8.846;2023-04-15T09:09:07;3.17;;;2.97;;
253;SDS011;590;48.772;8.846;2023-04-15T09:11:35;4.23;;;3.53;;
253;SDS011;590;48.772;8.846;2023-04-15T09:14:03;3.30;;;3.10;;
253;SDS011;590;48.772;8.846;2023-04-15T09:16:31;3.87;;;3.67;;
253;SDS011;590;48.772;8.846;2023-04-15T09:19:21;3.30;;;3.10;;
253;SDS011;590;48.772;8.846;2023-04-15T09:21:54;3.13;;;2.93;;
253;SDS011;590;48.772;8.846;2023-04-15T09:24:24;3.10;;;2.90;;
253;SDS011;590;48.772;8.846;2023-04-15T09:26:59;3.40;;;3.00;;
253;SDS011;590;48.772;8.846;2023-04-15T09:29:27;3.10;;;2.90;;
253;SDS011;590;48.772;8.846;2023-04-15T09:31:55;3.57;;;3.40;;
253;SDS011;590;48.772;8.846;2023-04-15T09:34:35;2.83;;;2.63;;
253;SDS011;590;48.772;8.846;2023-04-15T09:37:03;3.03;;;2.83;;
253;SDS011;590;48.772;8.846;2023-04-15T09:39:46;3.23;;;3.03;;
253;SDS011;590;48.772;8.846;2023-04-15T09:42:20;3.53;;;3.33;;
253;SDS011;590;48.772;8.846;2023-04-15T09:44:50;3.50;;;3.30;;
253;SDS011;590;48.772;8.846;2023-04-15T09:47:27;3.10;;;2.90;;
253;SDS011;590;48.772;8.846;2023-04-15T09:49:58;3.90;;;3.27;;
253;SDS011;590;48.772;8.846;2023-04-15T09:52:27;3.00;;;2.80;;
253;SDS011;590;48.772;8.846;2023-04-15T09:54:56;2.93;;;2.73;;
253;SDS011;590;48.772;8.846;2023-04-15T09:57:24;3.13;;;3.00;;
253;SDS011;590;48.772;8.846;2023-04-15T10:00:02;3.20;;;3.00;;
253;SDS011;590;48.772;8.846;2023-04-15T10:02:30;3.10;;;2.90;;
253;SDS011;590;48.772;8.846;2023-04-15T10:05:00;2.90;;;2.70;;
253;SDS011;590;48.772;8.846;2023-04-15T10:07:29;2.47;;;2.27;;
253;SDS011;590;48.772;8.846;2023-04-15T10:09:57;2.73;;;2.53;;
253;SDS011;590;48.772;8.846;2023-04-15T10:12:27;4.10;;;2.93;;
253;SDS011;590;48.772;8.846;2023-04-15T10:15:03;3.77;;;2.83;;
253;SDS011;590;48.772;8.846;2023-04-15T10:17:32;2.80;;;2.63;;
253;SDS011;590;48.772;8.846;2023-04-15T10:20:04;2.70;;;2.50;;
253;SDS011;590;48.772;8.846;2023-04-15T10:22:34;3.93;;;3.00;;
253;SDS011;590;48.772;8.846;2023-04-15T10:25:04;3.67;;;2.60;;
253;SDS011;590;48.772;8.846;2023-04-15T10:27:32;2.60;;;2.40;;
253;SDS011;590;48.772;8.846;2023-04-15T10:30:01;2.63;;;2.30;;
253;SDS011;590;48.772;8.846;2023-04-15T10:32:30;3.13;;;2.70;;
253;SDS011;590;48.772;8.846;2023-04-15T10:34:58;2.63;;;2.43;;
253;SDS011;590;48.772;8.846;2023-04-15T10:37:33;2.90;;;2.70;;
253;SDS011;590;48.772;8.846;2023-04-15T10:40:22;2.57;;;2.37;;
253;SDS011;590;48.772;8.846;2023-04-15T10:42:53;2.37;;;2.17;;
253;SDS011;590;48.772;8.846;2023-04-15T10:45:21;2.30;;;1.90;;
253;SDS011;590;48.772;8.846;2023-04-15T10:47:54;2.40;;;2.20;;
253;SDS011;590;48.772;8.846;2023-04-15T10:50:24;2.43;;;2.23;;
253;SDS011;590;48.772;8.846;2023-04-15T10:52:54;2.27;;;2.07;;
253;SDS011;590;48.772;8.846;2023-04-15T10:55:24;5.43;;;2.13;;
253;SDS011;590;48.772;8.846;2023-04-15T10:57:53;2.40;;;2.30;;
253;SDS011;590;48.772;8.846;2023-04-15T11:00:27;2.30;;;2.10;;
253;SDS011;590;48.772;8.846;2023-04-15T11:02:57;2.37;;;2.17;;
253;SDS011;590;48.772;8.846;2023-04-15T11:08:18;2.50;;;1.63;;
253;SDS011;590;48.772;8.846;2023-04-15T11:10:49;1.77;;;1.60;;
253;SDS011;590;48.772;8.846;2023-04-15T11:13:20;2.30;;;2.10;;
253;SDS011;590;48.772;8.846;2023-04-15T11:15:53;1.97;;;1.87;;
253;SDS011;590;48.772;8.846;2023-04-15T11:18:24;2.50;;;2.13;;
253;SDS011;590;48.772;8.846;2023-04-15T11:20:54;2.70;;;1.60;;
253;SDS011;590;48.772;8.846;2023-04-15T11:23:29;6.80;;;2.27;;
253;SDS011;590;48.772;8.846;2023-04-15T11:25:59;1.77;;;1.70;;
253;SDS011;590;48.772;8.846;2023-04-15T11:28:31;2.70;;;1.73;;
253;SDS011;590;48.772;8.846;2023-04-15T11:31:04;2.40;;;2.20;;
253;SDS011;590;48.772;8.846;2023-04-15T11:33:33;2.13;;;1.97;;
253;SDS011;590;48.772;8.846;2023-04-15T11:36:03;2.37;;;2.00;;
253;SDS011;590;48.772;8.846;2023-04-15T11:38:32;1.80;;;1.70;;
253;SDS011;590;48.772;8.846;2023-04-15T11:41:00;2.50;;;2.23;;
253;SDS011;590;48.772;8.846;2023-04-15T11:43:30;2.40;;;1.57;;
253;SDS011;590;48.772;8.846;2023-04-15T11:46:01;1.93;;;1.83;;
253;SDS011;590;48.772;8.846;2023-04-15T11:48:31;2.00;;;1.90;;
253;SDS011;590;48.772;8.846;2023-04-15T11:51:09;2.57;;;2.00;;
253;SDS011;590;48.772;8.846;2023-04-15T11:53:40;3.67;;;2.00;;
253;SDS011;590;48.772;8.846;2023-04-15T11:56:10;1.80;;;1.63;;
253;SDS011;590;48.772;8.846;2023-04-15T11:58:43;3.10;;;1.90;;
253;SDS011;590;48.772;8.846;2023-04-15T12:01:12;2.67;;;1.90;;
253;SDS011;590;48.772;8.846;2023-04-15T12:03:40;1.60;;;1.50;;
253;SDS011;590;48.772;8.846;2023-04-15T12:06:11;2.30;;;2.10;;
253;SDS011;590;48.772;8.846;2023-04-15T12:11:36;1.70;;;1.47;;
253;SDS011;590;48.772;8.846;2023-04-15T12:14:10;1.80;;;1.70;;
253;SDS011;590;48.772;8.846;2023-04-15T12:16:40;1.43;;;1.43;;
253;SDS011;590;48.772;8.846;2023-04-15T12:19:15;1.70;;;1.60;;
253;SDS011;590;48.772;8.846;2023-04-15T12:21:45;2.40;;;2.20;;
253;SDS011;590;48.772;8.846;2023-04-15T12:24:18;1.47;;;1.40;;
253;SDS011;590;48.772;8.846;2023-04-15T12:26:48;2.43;;;2.00;;
253;SDS011;590;48.772;8.846;2023-04-15T12:29:17;1.77;;;1.57;;
253;SDS011;590;48.772;8.846;2023-04-15T12:31:49;1.70;;;1.60;;
253;SDS011;590;48.772;8.846;2023-04-15T12:34:24;2.00;;;1.50;;
253;SDS011;590;48.772;8.846;2023-04-15T12:37:05;2.10;;;1.40;;
253;SDS011;590;48.772;8.846;2023-04-15T12:39:37;1.70;;;1.63;;
253;SDS011;590;48.772;8.846;2023-04-15T12:42:07;1.73;;;1.40;;
253;SDS011;590;48.772;8.846;2023-04-15T12:44:36;1.93;;;1.80;;
253;SDS011;590;48.772;8.846;2023-04-15T12:47:05;2.37;;;1.90;;
253;SDS011;590;48.772;8.846;2023-04-15T12:49:34;2.27;;;1.83;;
253;SDS011;590;48.772;8.846;2023-04-15T12:52:03;1.73;;;1.63;;
253;SDS011;590;48.772;8.846;2023-04-15T12:54:31;2.33;;;2.00;;
253;SDS011;590;48.772;8.846;2023-04-15T12:57:01;1.80;;;1.70;;
253;SDS011;590;48.772;8.846;2023-04-15T12:59:32;1.63;;;1.40;;
253;SDS011;590;48.772;8.846;2023-04-15T13:02:00;1.77;;;1.70;;
253;SDS011;590;48.772;8.846;2023-04-15T13:04:29;1.67;;;1.40;;
253;SDS011;590;48.772;8.846;2023-04-15T13:06:57;1.73;;;1.70;;
253;SDS011;590;48.772;8.846;2023-04-15T13:09:25;1.60;;;1.50;;
253;SDS011;590;48.772;8.846;2023-04-15T13:11:53;1.37;;;1.27;;
253;SDS011;590;48.772;8.846;2023-04-15T13:14:24;1.43;;;1.33;;
253;SDS011;590;48.772;8.846;2023-04-15T13:16:52;1.67;;;1.60;;
253;SDS011;590;48.772;8.846;2023-04-15T13:19:20;1.43;;;1.37;;
253;SDS011;590;48.772;8.846;2023-04-15T13:21:48;2.30;;;1.67;;
253;SDS011;590;48.772;8.846;2023-04-15T13:24:16;1.70;;;1.60;;
253;SDS011;590;48.772;8.846;2023-04-15T13:26:44;1.37;;;1.33;;
253;SDS011;590;48.772;8.846;2023-04-15T13:29:14;1.53;;;1.43;;
253;SDS011;590;48.772;8.846;2023-04-15T13:31:44;2.60;;;1.60;;
253;SDS011;590;48.772;8.846;2023-04-15T13:34:12;1.77;;;1.67;;
253;SDS011;590;48.772;8.846;2023-04-15T13:36:40;1.50;;;1.40;;
253;SDS011;590;48.772;8.846;2023-04-15T13:39:08;1.57;;;1.47;;
253;SDS011;590;48.772;8.846;2023-04-15T13:41:36;1.67;;;1.57;;
253;SDS011;590;48.772;8.846;2023-04-15T13:44:04;1.63;;;1.60;;
253;SDS011;590;48.772;8.846;2023-04-15T13:46:32;2.40;;;1.37;;
253;SDS011;590;48.772;8.846;2023-04-15T13:49:01;1.63;;;1.50;;
253;SDS011;590;48.772;8.846;2023-04-15T13:51:29;1.97;;;1.87;;
253;SDS011;590;48.772;8.846;2023-04-15T13:53:58;3.07;;;1.67;;
253;SDS011;590;48.772;8.846;2023-04-15T13:56:26;1.93;;;1.70;;
253;SDS011;590;48.772;8.846;2023-04-15T13:58:57;1.57;;;1.50;;
253;SDS011;590;48.772;8.846;2023-04-15T14:01:27;1.33;;;1.23;;
253;SDS011;590;48.772;8.846;2023-04-15T14:03:55;1.77;;;1.67;;
253;SDS011;590;48.772;8.846;2023-04-15T14:06:25;1.43;;;1.20;;
253;SDS011;590;48.772;8.846;2023-04-15T14:08:53;1.30;;;1.20;;
253;SDS011;590;48.772;8.846;2023-04-15T14:11:21;1.47;;;1.37;;
253;SDS011;590;48.772;8.846;2023-04-15T14:13:49;1.90;;;1.80;;
253;SDS011;590;48.772;8.846;2023-04-15T14:16:17;1.70;;;1.60;;
253;SDS011;590;48.772;8.846;2023-04-15T14:18:45;1.60;;;1.50;;
253;SDS011;590;48.772;8.846;2023-04-15T14:21:13;1.47;;;1.47;;
253;SDS011;590;48.772;8.846;2023-04-15T14:23:49;1.30;;;1.20;;
253;SDS011;590;48.772;8.846;2023-04-15T14:26:17;1.40;;;1.30;;
253;SDS011;590;48.772;8.846;2023-04-15T14:28:45;1.87;;;1.70;;
253;SDS011;590;48.772;8.846;2023-04-15T14:31:13;1.40;;;1.30;;
253;SDS011;590;48.772;8.846;2023-04-15T14:33:41;1.90;;;1.57;;
253;SDS011;590;48.772;8.846;2023-04-15T14:36:09;1.73;;;1.37;;
253;SDS011;590;48.772;8.846;2023-04-15T14:38:37;2.50;;;1.60;;
253;SDS011;590;48.772;8.846;2023-04-15T14:41:07;1.83;;;1.50;;
253;SDS011;590;48.772;8.846;2023-04-15T14:43:36;1.43;;;1.40;;
253;SDS011;590;48.772;8.846;2023-04-15T14:46:04;1.13;;;1.10;;
253;SDS011;590;48.772;8.846;2023-04-15T14:48:33;1.20;;;1.10;;
253;SDS011;590;48.772;8.846;2023-04-15T14:51:01;1.10;;;1.10;;
253;SDS011;590;48.772;8.846;2023-04-15T14:53:29;1.37;;;1.23;;
253;SDS011;590;48.772;8.846;2023-04-15T14:55:58;1.30;;;1.20;;
253;SDS011;590;48.772;8.846;2023-04-15T14:58:27;1.00;;;0.90;;
253;SDS011;590;48.772;8.846;2023-04-15T15:00:55;1.40;;;1.30;;
253;SDS011;590;48.772;8.846;2023-04-15T15:03:23;1.80;;;1.20;;
253;SDS011;590;48.772;8.846;2023-04-15T15:05:51;1.13;;;1.03;;
253;SDS011;590;48.772;8.846;2023-04-15T15:08:19;1.57;;;1.47;;
253;SDS011;590;48.772;8.846;2023-04-15T15:10:47;1.60;;;1.10;;
253;SDS011;590;48.772;8.846;2023-04-15T15:13:15;1.13;;;1.03;;
253;SDS011;590;48.772;8.846;2023-04-15T15:15:45;1.30;;;1.20;;
253;SDS011;590;48.772;8.846;2023-04-15T15:18:15;1.53;;;1.30;;
253;SDS011;590;48.772;8.846;2023-04-15T15:20:44;1.10;;;1.00;;
253;SDS011;590;48.772;8.846;2023-04-15T15:23:13;1.00;;;1.00;;
253;SDS011;590;48.772;8.846;2023-04-15T15:25:41;1.73;;;1.30;;
253;SDS011;590;48.772;8.846;2023-04-15T15:28:09;1.17;;;1.07;;
253;SDS011;590;48.772;8.846;2023-04-15T15:30:37;2.80;;;1.57;;
253;SDS011;590;48.772;8.846;2023-04-15T15:33:07;1.77;;;1.30;;
253;SDS011;590;48.772;8.846;2023-04-15T15:35:35;1.33;;;1.27;;
253;SDS011;590;48.772;8.846;2023-04-15T15:38:03;1.53;;;1.33;;
253;SDS011;590;48.772;8.846;2023-04-15T15:40:31;0.90;;;0.90;;
253;SDS011;590;48.772;8.846;2023-04-15T15:42:59;2.30;;;1.30;;
253;SDS011;590;48.772;8.846;2023-04-15T15:45:31;1.70;;;1.30;;
253;SDS011;590;48.772;8.846;2023-04-15T15:48:00;1.30;;;1.20;;
253;SDS011;590;48.772;8.846;2023-04-15T15:50:29;1.17;;;1.10;;
253;SDS011;590;48.772;8.846;2023-04-15T15:52:57;1.20;;;1.10;;
253;SDS011;590;48.772;8.846;2023-04-15T15:55:25;2.40;;;1.40;;
253;SDS011;590;48.772;8.846;2023-04-15T15:57:53;1.43;;;1.33;;
253;SDS011;590;48.772;8.846;2023-04-15T16:00:21;1.30;;;1.20;;
253;SDS011;590;48.772;8.846;2023-04-15T16:02:49;1.13;;;1.10;;
253;SDS011;590;48.772;8.846;2023-04-15T16:05:23;1.20;;;0.80;;